Time;durP1;ratioP1;P1;durP2;ratioP2;P2;SDS_P1;SDS_P2;PMS_P1;PMS_P2;Temp;Humidity;BMP_temperature;BMP_pressure;BME280_temperature;BME280_humidity;BME280_pressure;Samples;Min_cycle;Max_cycle;Signal;HPM_P1;HPM_P2
2023/02/08 00:00:37;;;;;;;;;;;2.90;98.90;;;;;;5084033;28;19912;-65
2023/02/08 00:03:03;;;;;;;;;;;2.90;99.10;;;;;;5084751;28;19920;-64
2023/02/08 00:05:29;;;;;;;;;;;3.00;99.00;;;;;;5083591;28;19961;-65
2023/02/08 00:07:54;;;;;;;;;;;3.00;99.30;;;;;;5085792;28;19912;-63
2023/02/08 00:10:20;;;;;;;;;;;2.90;99.10;;;;;;5086768;28;20393;-64
2023/02/08 00:12:46;;;;;;;;;;;2.90;99.10;;;;;;5068328;28;19911;-66
2023/02/08 00:15:12;;;;;;;;;;;2.90;99.20;;;;;;5085932;28;19971;-66
2023/02/08 00:17:38;;;;;;;;;;;2.90;99.30;;;;;;5087341;28;19912;-64
2023/02/08 00:20:04;;;;;;;;;;;2.80;99.20;;;;;;5086143;28;19967;-66
2023/02/08 00:22:30;;;;;;;;;;;2.90;99.40;;;;;;5092077;28;19923;-65
2023/02/08 00:24:56;;;;;;;;;;;2.90;99.40;;;;;;5086719;28;20395;-65
2023/02/08 00:27:22;;;;;;;;;;;3.00;99.30;;;;;;5069565;28;19938;-66
2023/02/08 00:29:47;;;;;;;;;;;3.00;99.30;;;;;;5087687;28;19943;-64
2023/02/08 00:32:13;;;;;;;;;;;3.00;98.80;;;;;;5066716;28;19920;-65
2023/02/08 00:34:39;;;;;;;;;;;2.90;99.10;;;;;;5085684;28;20396;-65
2023/02/08 00:37:05;;;;;;;;;;;2.90;99.20;;;;;;5085067;28;19973;-63
2023/02/08 00:39:30;;;;;;;;;;;3.00;99.00;;;;;;5087661;28;19961;-66
2023/02/08 00:41:57;;;;;;;;;;;3.00;99.00;;;;;;5084621;28;19924;-66
2023/02/08 00:44:22;;;;;;;;;;;3.00;98.90;;;;;;5070006;28;19919;-65
2023/02/08 00:46:48;;;;;;;;;;;3.00;98.70;;;;;;5089841;28;19912;-65
2023/02/08 00:49:14;;;;;;;;;;;2.90;98.80;;;;;;5087705;28;19927;-65
2023/02/08 00:51:39;;;;;;;;;;;2.90;99.10;;;;;;5086949;28;19912;-62
2023/02/08 00:54:05;;;;;;;;;;;2.90;98.70;;;;;;5087285;28;19939;-64
2023/02/08 00:56:31;;;;;;;;;;;2.90;98.90;;;;;;5068660;28;20381;-64
2023/02/08 00:58:56;;;;;;;;;;;2.80;99.00;;;;;;5085954;28;19913;-65
2023/02/08 01:01:22;;;;;;;;;;;2.80;98.90;;;;;;5087155;28;20234;-65
2023/02/08 01:03:48;;;;;;;;;;;2.90;98.90;;;;;;5089428;28;19998;-67
2023/02/08 01:06:14;;;;;;;;;;;2.80;98.90;;;;;;5096837;28;20006;-66
2023/02/08 01:08:40;;;;;;;;;;;2.80;99.00;;;;;;5071230;28;19919;-65
2023/02/08 01:11:14;;;;;;;;;;;2.70;99.10;;;;;;5087937;28;19924;-66
2023/02/08 01:13:40;;;;;;;;;;;2.80;99.10;;;;;;5086156;28;19931;-67
2023/02/08 01:16:09;;;;;;;;;;;2.80;99.30;;;;;;5088984;28;21512;-65
2023/02/08 01:18:35;;;;;;;;;;;2.80;99.40;;;;;;5086219;28;19952;-66
2023/02/08 01:21:08;;;;;;;;;;;2.80;99.40;;;;;;5065881;28;19912;-66
2023/02/08 01:23:34;;;;;;;;;;;2.90;99.20;;;;;;5088845;28;20443;-64
2023/02/08 01:26:00;;;;;;;;;;;2.90;99.30;;;;;;5083465;28;19921;-65
2023/02/08 01:28:26;;;;;;;;;;;2.90;99.50;;;;;;5070518;28;19921;-66
2023/02/08 01:30:54;;;;;;;;;;;2.80;99.70;;;;;;5091240;28;19923;-65
2023/02/08 01:33:20;;;;;;;;;;;2.90;99.50;;;;;;5087004;28;19916;-65
2023/02/08 01:35:48;;;;;;;;;;;2.80;99.70;;;;;;5090843;28;20059;-65
2023/02/08 01:38:14;;;;;;;;;;;2.90;99.60;;;;;;5085967;28;19916;-64
2023/02/08 01:40:40;;;;;;;;;;;2.80;99.50;;;;;;5082665;28;20295;-63
2023/02/08 01:43:15;;;;;;;;;;;2.80;99.70;;;;;;5077509;28;19954;-65
2023/02/08 01:45:40;;;;;;;;;;;2.70;99.90;;;;;;5081802;28;19912;-67
2023/02/08 01:48:09;;;;;;;;;;;2.60;99.80;;;;;;5083030;28;19998;-63
2023/02/08 01:50:39;;;;;;;;;;;2.60;99.80;;;;;;5080480;28;19960;-62
2023/02/08 01:53:04;;;;;;;;;;;2.60;99.90;;;;;;5079850;28;20527;-66
2023/02/08 01:55:36;;;;;;;;;;;2.60;99.90;;;;;;5083964;28;20014;-63
2023/02/08 01:58:04;;;;;;;;;;;2.60;99.90;;;;;;5081043;28;19916;-66
2023/02/08 02:00:30;;;;;;;;;;;2.50;99.90;;;;;;5083032;28;19958;-62
2023/02/08 02:02:58;;;;;;;;;;;2.50;99.90;;;;;;5065173;28;19952;-67
2023/02/08 02:05:44;;;;;;;;;;;2.50;99.90;;;;;;5064420;28;19920;-66
2023/02/08 02:08:10;;;;;;;;;;;2.50;99.90;;;;;;5082398;28;20416;-66
2023/02/08 02:10:37;;;;;;;;;;;2.50;99.90;;;;;;5079309;28;19919;-67
2023/02/08 02:13:05;;;;;;;;;;;2.50;99.90;;;;;;5062729;28;19927;-66
2023/02/08 02:15:31;;;;;;;;;;;2.60;99.90;;;;;;5080754;28;19912;-66
2023/02/08 02:17:56;;;;;;;;;;;2.60;99.90;;;;;;5081320;28;19933;-66
2023/02/08 02:20:28;;;;;;;;;;;2.50;99.90;;;;;;5081391;28;20318;-67
2023/02/08 02:23:12;;;;;;;;;;;2.50;99.90;;;;;;5079827;28;20011;-64
2023/02/08 02:25:38;;;;;;;;;;;2.50;99.90;;;;;;5082412;28;19920;-65
2023/02/08 02:28:23;;;;;;;;;;;2.40;99.90;;;;;;5082122;28;19922;-67
2023/02/08 02:31:10;;;;;;;;;;;2.40;99.90;;;;;;5082077;28;20627;-66
2023/02/08 02:33:39;;;;;;;;;;;2.30;99.90;;;;;;5064889;28;19916;-66
2023/02/08 02:36:14;;;;;;;;;;;2.30;99.90;;;;;;5079483;28;19912;-64
2023/02/08 02:38:49;;;;;;;;;;;2.30;99.90;;;;;;5088963;28;19912;-64
2023/02/08 02:44:37;;;;;;;;;;;2.40;99.90;;;;;;5090306;28;20388;-63
2023/02/08 02:47:22;;;;;;;;;;;2.40;99.90;;;;;;5086744;28;19920;-71
2023/02/08 02:49:53;;;;;;;;;;;2.40;99.90;;;;;;5074621;28;19956;-66
2023/02/08 02:52:26;;;;;;;;;;;2.40;99.90;;;;;;5092189;28;20362;-63
2023/02/08 02:54:54;;;;;;;;;;;2.40;99.90;;;;;;5074749;28;19908;-64
2023/02/08 02:57:25;;;;;;;;;;;2.40;99.90;;;;;;5094725;28;19908;-64
2023/02/08 02:59:51;;;;;;;;;;;2.50;99.90;;;;;;5099234;28;19947;-62
2023/02/08 03:02:17;;;;;;;;;;;2.30;99.90;;;;;;5092883;28;20447;-65
2023/02/08 03:04:47;;;;;;;;;;;2.30;99.90;;;;;;5092289;28;19942;-63
2023/02/08 03:07:19;;;;;;;;;;;2.30;99.90;;;;;;5093490;28;20305;-66
2023/02/08 03:09:56;;;;;;;;;;;2.30;99.90;;;;;;5082185;28;20008;-65
2023/02/08 03:12:25;;;;;;;;;;;2.30;99.90;;;;;;5083070;28;19935;-66
2023/02/08 03:14:57;;;;;;;;;;;2.40;99.90;;;;;;5080580;28;20023;-67
2023/02/08 03:17:29;;;;;;;;;;;2.40;99.90;;;;;;5076922;28;21431;-66
2023/02/08 03:20:03;;;;;;;;;;;2.40;99.90;;;;;;5078462;28;19959;-64
2023/02/08 03:22:36;;;;;;;;;;;2.40;99.90;;;;;;5079497;28;19924;-66
2023/02/08 03:25:08;;;;;;;;;;;2.40;99.90;;;;;;5063433;28;20542;-64
2023/02/08 03:27:34;;;;;;;;;;;2.50;99.90;;;;;;5086707;28;19965;-63
2023/02/08 03:30:20;;;;;;;;;;;2.50;99.90;;;;;;5079977;28;20003;-63
2023/02/08 03:32:46;;;;;;;;;;;2.50;99.90;;;;;;5082580;28;19948;-66
2023/02/08 03:35:18;;;;;;;;;;;2.40;99.90;;;;;;5080997;28;19952;-64
2023/02/08 03:37:43;;;;;;;;;;;2.50;99.90;;;;;;5080111;28;19916;-63
2023/02/08 03:40:17;;;;;;;;;;;2.40;99.90;;;;;;5081080;28;20419;-66
2023/02/08 03:42:43;;;;;;;;;;;2.40;99.90;;;;;;5076986;28;20397;-60
2023/02/08 03:45:32;;;;;;;;;;;2.50;99.90;;;;;;5081345;28;19921;-64
2023/02/08 03:47:59;;;;;;;;;;;2.50;99.90;;;;;;5072151;28;19951;-64
2023/02/08 03:50:26;;;;;;;;;;;2.30;99.90;;;;;;5078821;28;19912;-66
2023/02/08 03:52:52;;;;;;;;;;;2.20;99.90;;;;;;5079942;28;20346;-65
2023/02/08 03:55:26;;;;;;;;;;;2.30;99.90;;;;;;5075088;28;20316;-64
2023/02/08 03:57:56;;;;;;;;;;;2.20;99.90;;;;;;5065440;28;19912;-62
2023/02/08 04:00:22;;;;;;;;;;;2.20;99.90;;;;;;5062728;28;20082;-66
2023/02/08 04:03:08;;;;;;;;;;;2.10;99.90;;;;;;5082041;28;21726;-62
2023/02/08 04:05:34;;;;;;;;;;;2.10;99.90;;;;;;5081965;28;19943;-65
2023/02/08 04:08:00;;;;;;;;;;;2.10;99.90;;;;;;5066475;28;20373;-65
2023/02/08 04:10:25;;;;;;;;;;;2.00;99.90;;;;;;5081978;28;19912;-65
2023/02/08 04:12:51;;;;;;;;;;;1.90;99.90;;;;;;5084467;28;19938;-66
2023/02/08 04:15:17;;;;;;;;;;;1.90;99.90;;;;;;5081462;28;20481;-65
2023/02/08 04:17:43;;;;;;;;;;;1.90;99.90;;;;;;5084341;28;19920;-60
2023/02/08 04:20:08;;;;;;;;;;;1.90;99.90;;;;;;5081456;28;19912;-65
2023/02/08 04:22:34;;;;;;;;;;;1.80;99.90;;;;;;5077806;28;19927;-63
2023/02/08 04:25:00;;;;;;;;;;;1.80;99.90;;;;;;5092768;28;19919;-63
2023/02/08 04:27:25;;;;;;;;;;;1.70;99.90;;;;;;5079042;28;19912;-64
2023/02/08 04:29:51;;;;;;;;;;;1.70;99.90;;;;;;5079822;28;20005;-63
2023/02/08 04:32:17;;;;;;;;;;;1.60;99.90;;;;;;5081976;28;20361;-64
2023/02/08 04:34:42;;;;;;;;;;;1.60;99.90;;;;;;5066531;28;19916;-65
2023/02/08 04:37:08;;;;;;;;;;;1.70;99.90;;;;;;5080890;28;20004;-62
2023/02/08 04:39:34;;;;;;;;;;;1.60;99.90;;;;;;5082886;28;20473;-62
2023/02/08 04:41:59;;;;;;;;;;;1.60;99.90;;;;;;5078184;28;19916;-64
2023/02/08 04:44:26;;;;;;;;;;;1.60;99.90;;;;;;5081286;28;20370;-61
2023/02/08 04:46:52;;;;;;;;;;;1.60;99.90;;;;;;5085388;28;19927;-66
2023/02/08 04:49:17;;;;;;;;;;;1.60;99.90;;;;;;5078784;28;19916;-65
2023/02/08 04:51:43;;;;;;;;;;;1.50;99.90;;;;;;5081136;28;19916;-65
2023/02/08 04:54:09;;;;;;;;;;;1.50;99.90;;;;;;5082637;28;20597;-61
2023/02/08 04:56:34;;;;;;;;;;;1.50;99.90;;;;;;5077844;28;19913;-63
2023/02/08 04:59:00;;;;;;;;;;;1.50;99.90;;;;;;5079859;28;19916;-65
2023/02/08 05:01:26;;;;;;;;;;;1.60;99.90;;;;;;5063854;28;19947;-64
2023/02/08 05:03:51;;;;;;;;;;;1.60;99.90;;;;;;5081915;28;19938;-65
2023/02/08 05:06:17;;;;;;;;;;;1.60;99.90;;;;;;5086786;28;19912;-62
2023/02/08 05:08:42;;;;;;;;;;;1.50;99.90;;;;;;5085055;28;19955;-65
2023/02/08 05:11:08;;;;;;;;;;;1.50;99.90;;;;;;5082045;28;19921;-63
2023/02/08 05:13:34;;;;;;;;;;;1.50;99.90;;;;;;5083067;28;21814;-64
2023/02/08 05:16:00;;;;;;;;;;;1.50;99.90;;;;;;5087859;28;19939;-65
2023/02/08 05:18:25;;;;;;;;;;;1.50;99.90;;;;;;5094897;28;20011;-66
2023/02/08 05:20:59;;;;;;;;;;;1.50;99.90;;;;;;5092807;28;19916;-64
2023/02/08 05:23:25;;;;;;;;;;;1.50;99.90;;;;;;5075852;28;19927;-66
2023/02/08 05:25:51;;;;;;;;;;;1.50;99.90;;;;;;5075784;28;19912;-66
2023/02/08 05:28:17;;;;;;;;;;;1.40;99.90;;;;;;5096064;28;19953;-66
2023/02/08 05:30:43;;;;;;;;;;;1.40;99.90;;;;;;5098340;28;19920;-65
2023/02/08 05:33:09;;;;;;;;;;;1.50;99.90;;;;;;5098674;28;19908;-66
2023/02/08 05:35:35;;;;;;;;;;;1.50;99.90;;;;;;5100821;28;19918;-66
2023/02/08 05:38:00;;;;;;;;;;;1.40;99.90;;;;;;5106665;28;19912;-65
2023/02/08 05:40:26;;;;;;;;;;;1.40;99.90;;;;;;5087305;28;19999;-66
2023/02/08 05:42:51;;;;;;;;;;;1.40;99.90;;;;;;5096650;28;19916;-63
2023/02/08 05:45:17;;;;;;;;;;;1.30;99.90;;;;;;5096917;28;19908;-66
2023/02/08 05:47:43;;;;;;;;;;;1.40;99.90;;;;;;5097613;28;19916;-66
2023/02/08 05:50:09;;;;;;;;;;;1.40;99.90;;;;;;5104115;28;19915;-64
2023/02/08 05:52:35;;;;;;;;;;;1.30;99.90;;;;;;5100202;28;19913;-65
2023/02/08 05:55:00;;;;;;;;;;;1.30;99.90;;;;;;5097420;28;19933;-64
2023/02/08 05:57:26;;;;;;;;;;;1.30;99.90;;;;;;5099206;28;19934;-66
2023/02/08 05:59:51;;;;;;;;;;;1.30;99.90;;;;;;5100012;28;19980;-66
2023/02/08 06:02:17;;;;;;;;;;;1.30;99.90;;;;;;5098546;28;19962;-65
2023/02/08 06:04:43;;;;;;;;;;;1.40;99.90;;;;;;5099077;28;19916;-64
2023/02/08 06:07:08;;;;;;;;;;;1.40;99.90;;;;;;5094211;28;20308;-62
2023/02/08 06:09:34;;;;;;;;;;;1.50;99.90;;;;;;5099556;28;19923;-64
2023/02/08 06:12:00;;;;;;;;;;;1.40;99.90;;;;;;5100775;28;20400;-66
2023/02/08 06:14:25;;;;;;;;;;;1.40;99.90;;;;;;5101468;28;19991;-65
2023/02/08 06:16:51;;;;;;;;;;;1.40;99.90;;;;;;5096043;28;19912;-63
2023/02/08 06:19:17;;;;;;;;;;;1.40;99.90;;;;;;5101916;28;19919;-63
2023/02/08 06:21:42;;;;;;;;;;;1.30;99.90;;;;;;5085234;28;20019;-71
2023/02/08 06:24:09;;;;;;;;;;;1.40;99.90;;;;;;5103417;28;19948;-66
2023/02/08 06:26:34;;;;;;;;;;;1.40;99.90;;;;;;5093928;28;19923;-66
2023/02/08 06:29:00;;;;;;;;;;;1.40;99.90;;;;;;5099829;28;19944;-64
2023/02/08 06:31:26;;;;;;;;;;;1.50;99.90;;;;;;5082377;28;20331;-66
2023/02/08 06:33:51;;;;;;;;;;;1.50;99.90;;;;;;5095776;28;20286;-65
2023/02/08 06:36:17;;;;;;;;;;;1.50;99.90;;;;;;5099020;28;19934;-66
2023/02/08 06:38:43;;;;;;;;;;;1.50;99.90;;;;;;5099787;28;20301;-65
2023/02/08 06:41:10;;;;;;;;;;;1.50;99.90;;;;;;5102030;28;19951;-65
2023/02/08 06:43:35;;;;;;;;;;;1.50;99.90;;;;;;5099955;28;19927;-63
2023/02/08 06:46:03;;;;;;;;;;;1.50;99.90;;;;;;5084834;28;19935;-66
2023/02/08 06:48:29;;;;;;;;;;;1.60;99.90;;;;;;5099907;28;20020;-64
2023/02/08 06:50:55;;;;;;;;;;;1.60;99.90;;;;;;5099932;28;19918;-66
2023/02/08 06:53:21;;;;;;;;;;;1.70;99.90;;;;;;5102041;28;19940;-65
2023/02/08 06:55:50;;;;;;;;;;;1.70;99.90;;;;;;5097133;28;19933;-66
2023/02/08 06:58:16;;;;;;;;;;;1.70;99.90;;;;;;5102336;28;19912;-65
2023/02/08 07:00:44;;;;;;;;;;;1.70;99.90;;;;;;5100123;28;19954;-65
2023/02/08 07:03:10;;;;;;;;;;;1.60;99.90;;;;;;5101772;28;20291;-63
2023/02/08 07:05:36;;;;;;;;;;;1.60;99.90;;;;;;5075288;28;19970;-64
2023/02/08 07:08:02;;;;;;;;;;;1.60;99.90;;;;;;5078722;28;19912;-64
2023/02/08 07:10:28;;;;;;;;;;;1.50;99.90;;;;;;5101373;28;19913;-64
2023/02/08 07:12:53;;;;;;;;;;;1.60;99.90;;;;;;5096251;28;19916;-64
2023/02/08 07:15:19;;;;;;;;;;;1.60;99.90;;;;;;5098116;28;19967;-64
2023/02/08 07:17:45;;;;;;;;;;;1.60;99.90;;;;;;5076559;28;19912;-66
2023/02/08 07:20:11;;;;;;;;;;;1.50;99.90;;;;;;5097281;28;19912;-64
2023/02/08 07:22:37;;;;;;;;;;;1.60;99.90;;;;;;5095713;28;19924;-67
2023/02/08 07:25:04;;;;;;;;;;;1.70;99.90;;;;;;5084164;28;19962;-66
2023/02/08 07:27:29;;;;;;;;;;;1.70;99.90;;;;;;5073677;28;19912;-66
2023/02/08 07:29:55;;;;;;;;;;;1.70;99.90;;;;;;5077389;28;19912;-66
2023/02/08 07:32:21;;;;;;;;;;;1.70;99.90;;;;;;5096413;28;19932;-67
2023/02/08 07:34:46;;;;;;;;;;;1.70;99.90;;;;;;5096108;28;19916;-67
2023/02/08 07:37:12;;;;;;;;;;;1.80;99.90;;;;;;5077402;28;19920;-67
2023/02/08 07:39:38;;;;;;;;;;;1.70;99.90;;;;;;5075294;28;19912;-66
2023/02/08 07:42:05;;;;;;;;;;;1.80;99.90;;;;;;5075272;28;19982;-67
2023/02/08 07:44:31;;;;;;;;;;;1.80;99.90;;;;;;5093924;28;19916;-67
2023/02/08 07:46:56;;;;;;;;;;;1.70;99.90;;;;;;5095308;28;20278;-67
2023/02/08 07:49:22;;;;;;;;;;;1.70;99.90;;;;;;5097773;28;19916;-67
2023/02/08 07:51:48;;;;;;;;;;;1.70;99.90;;;;;;5092570;28;19912;-67
2023/02/08 07:54:14;;;;;;;;;;;1.70;99.90;;;;;;5076341;28;20218;-66
2023/02/08 07:56:40;;;;;;;;;;;1.70;99.90;;;;;;5102530;28;19966;-68
2023/02/08 07:59:05;;;;;;;;;;;1.70;99.90;;;;;;5091681;28;19912;-68
2023/02/08 08:01:31;;;;;;;;;;;1.80;99.90;;;;;;5075305;28;20273;-68
2023/02/08 08:03:57;;;;;;;;;;;1.80;99.90;;;;;;5091413;28;19912;-66
2023/02/08 08:06:23;;;;;;;;;;;1.80;99.90;;;;;;5091809;28;19935;-66
2023/02/08 08:08:49;;;;;;;;;;;1.80;99.90;;;;;;5088853;28;19913;-68
2023/02/08 08:11:15;;;;;;;;;;;1.90;99.90;;;;;;5078742;28;20313;-65
2023/02/08 08:13:41;;;;;;;;;;;1.90;99.90;;;;;;5090828;28;19920;-65
2023/02/08 08:16:08;;;;;;;;;;;2.00;99.90;;;;;;5099032;28;19972;-67
2023/02/08 08:18:34;;;;;;;;;;;2.00;99.90;;;;;;5096560;28;19935;-66
2023/02/08 08:21:01;;;;;;;;;;;2.00;99.90;;;;;;5089111;28;19916;-65
2023/02/08 08:23:28;;;;;;;;;;;2.00;99.90;;;;;;5095959;28;19926;-66
2023/02/08 08:25:53;;;;;;;;;;;2.00;99.90;;;;;;5078252;28;20534;-66
2023/02/08 08:28:19;;;;;;;;;;;2.00;99.90;;;;;;5090353;28;19920;-66
2023/02/08 08:30:45;;;;;;;;;;;2.00;99.90;;;;;;5096628;28;19969;-66
2023/02/08 08:33:12;;;;;;;;;;;2.10;99.90;;;;;;5097901;28;19905;-66
2023/02/08 08:35:38;;;;;;;;;;;2.00;99.90;;;;;;5095269;28;19931;-65
2023/02/08 08:38:04;;;;;;;;;;;2.00;99.90;;;;;;5096761;28;19995;-66
2023/02/08 08:40:29;;;;;;;;;;;2.10;99.90;;;;;;5099838;28;20544;-65
2023/02/08 08:42:55;;;;;;;;;;;2.00;99.90;;;;;;5101432;28;19928;-65
2023/02/08 08:45:21;;;;;;;;;;;2.10;99.90;;;;;;5100383;28;20011;-66
2023/02/08 08:47:47;;;;;;;;;;;2.10;99.90;;;;;;5102784;28;20002;-65
2023/02/08 08:50:12;;;;;;;;;;;2.10;99.90;;;;;;5098584;28;19916;-65
2023/02/08 08:52:39;;;;;;;;;;;2.10;99.90;;;;;;5098021;28;19912;-66
2023/02/08 08:55:05;;;;;;;;;;;2.20;99.90;;;;;;5102164;28;19965;-66
2023/02/08 08:57:30;;;;;;;;;;;2.20;99.90;;;;;;5095728;28;19964;-66
2023/02/08 08:59:56;;;;;;;;;;;2.30;99.90;;;;;;5095001;28;19916;-66
2023/02/08 09:02:22;;;;;;;;;;;2.40;99.90;;;;;;5098798;28;19927;-66
2023/02/08 09:04:47;;;;;;;;;;;2.40;99.90;;;;;;5095556;28;19919;-66
2023/02/08 09:07:13;;;;;;;;;;;2.40;99.90;;;;;;5097589;28;19916;-66
2023/02/08 09:09:40;;;;;;;;;;;2.40;99.90;;;;;;5097454;28;20000;-66
2023/02/08 09:12:05;;;;;;;;;;;2.40;99.90;;;;;;5086402;28;19961;-67
2023/02/08 09:14:31;;;;;;;;;;;2.40;99.90;;;;;;5100071;28;19912;-66
2023/02/08 09:16:57;;;;;;;;;;;2.40;99.90;;;;;;5092332;28;19934;-66
2023/02/08 09:19:22;;;;;;;;;;;2.50;99.90;;;;;;5100259;28;19913;-65
2023/02/08 09:21:48;;;;;;;;;;;2.50;99.90;;;;;;5109425;28;19969;-67
2023/02/08 09:24:14;;;;;;;;;;;2.50;99.90;;;;;;5114922;28;19912;-66
2023/02/08 09:26:40;;;;;;;;;;;2.50;99.90;;;;;;5088365;28;19952;-66
2023/02/08 09:29:06;;;;;;;;;;;2.50;99.90;;;;;;5107634;28;20346;-67
2023/02/08 09:31:35;;;;;;;;;;;2.60;99.90;;;;;;5099972;28;19938;-67
2023/02/08 09:34:01;;;;;;;;;;;2.60;99.90;;;;;;5115216;28;19908;-67
2023/02/08 09:36:28;;;;;;;;;;;2.70;99.90;;;;;;5111037;28;20372;-66
2023/02/08 09:38:59;;;;;;;;;;;2.80;99.90;;;;;;5110149;28;19933;-66
2023/02/08 09:41:43;;;;;;;;;;;2.80;99.90;;;;;;5111187;28;19908;-67
2023/02/08 09:44:14;;;;;;;;;;;2.90;99.90;;;;;;5094734;28;19920;-67
2023/02/08 09:46:43;;;;;;;;;;;3.00;99.90;;;;;;5105993;28;19912;-67
2023/02/08 09:49:13;;;;;;;;;;;3.00;99.90;;;;;;5098668;28;20308;-67
2023/02/08 09:51:42;;;;;;;;;;;3.00;99.90;;;;;;5074251;28;19961;-68
2023/02/08 09:54:19;;;;;;;;;;;3.00;99.90;;;;;;5111403;28;19908;-67
2023/02/08 09:56:46;;;;;;;;;;;3.00;99.90;;;;;;5113463;28;19990;-67
2023/02/08 09:59:13;;;;;;;;;;;3.00;99.90;;;;;;5098796;28;20003;-68
2023/02/08 10:01:38;;;;;;;;;;;3.10;99.90;;;;;;5112960;28;19922;-68
2023/02/08 10:04:24;;;;;;;;;;;3.10;99.90;;;;;;5109303;28;19951;-67
2023/02/08 10:06:50;;;;;;;;;;;3.20;99.90;;;;;;5072726;28;19915;-67
2023/02/08 10:09:18;;;;;;;;;;;3.20;99.90;;;;;;5102021;28;20514;-68
2023/02/08 10:11:48;;;;;;;;;;;3.30;99.90;;;;;;5112662;28;19919;-67
2023/02/08 10:14:25;;;;;;;;;;;3.30;99.90;;;;;;5103131;28;19932;-67
2023/02/08 10:17:09;;;;;;;;;;;3.30;99.90;;;;;;5109667;28;19912;-67
2023/02/08 10:19:54;;;;;;;;;;;3.20;99.90;;;;;;5105703;28;19920;-68
2023/02/08 10:22:38;;;;;;;;;;;3.30;99.90;;;;;;5103779;28;19916;-66
2023/02/08 10:25:13;;;;;;;;;;;3.30;99.90;;;;;;5093212;28;19908;-67
2023/02/08 10:27:41;;;;;;;;;;;3.20;99.90;;;;;;5109805;28;19942;-67
2023/02/08 10:30:07;;;;;;;;;;;3.30;99.90;;;;;;5109443;28;19916;-68
2023/02/08 10:32:35;;;;;;;;;;;3.30;99.90;;;;;;5106401;28;20010;-67
2023/02/08 10:35:03;;;;;;;;;;;3.20;99.90;;;;;;5115580;28;19912;-66
2023/02/08 10:37:33;;;;;;;;;;;3.20;99.90;;;;;;5110449;28;19908;-67
2023/02/08 10:40:02;;;;;;;;;;;3.30;99.90;;;;;;5096934;28;19993;-66
2023/02/08 10:42:29;;;;;;;;;;;3.30;99.90;;;;;;5068299;28;19916;-67
2023/02/08 10:44:58;;;;;;;;;;;3.40;99.90;;;;;;5082403;28;19913;-67
2023/02/08 10:47:35;;;;;;;;;;;3.50;99.90;;;;;;5093095;28;19980;-65
2023/02/08 10:50:03;;;;;;;;;;;3.60;99.90;;;;;;5093500;28;20021;-67
2023/02/08 10:52:29;;;;;;;;;;;3.70;99.90;;;;;;5096502;28;19934;-66
2023/02/08 10:54:58;;;;;;;;;;;3.70;99.90;;;;;;5084587;28;20366;-67
2023/02/08 10:57:27;;;;;;;;;;;3.70;99.90;;;;;;5095185;28;20390;-66
2023/02/08 11:00:19;;;;;;;;;;;3.70;99.90;;;;;;5084386;28;19931;-66
2023/02/08 11:02:48;;;;;;;;;;;3.70;99.90;;;;;;5059113;28;20313;-67
2023/02/08 11:05:30;;;;;;;;;;;3.70;99.90;;;;;;5069992;28;19946;-67
2023/02/08 11:08:06;;;;;;;;;;;3.70;99.90;;;;;;5090712;28;19948;-67
2023/02/08 11:10:32;;;;;;;;;;;3.70;99.90;;;;;;5099899;28;19950;-67
2023/02/08 11:13:13;;;;;;;;;;;3.60;99.90;;;;;;5095935;28;19912;-68
2023/02/08 11:15:39;;;;;;;;;;;3.60;99.90;;;;;;5093920;28;19912;-67
2023/02/08 11:18:05;;;;;;;;;;;3.50;99.90;;;;;;5096696;28;19915;-67
2023/02/08 11:20:35;;;;;;;;;;;3.50;99.90;;;;;;5096754;28;20415;-67
2023/02/08 11:23:02;;;;;;;;;;;3.50;99.90;;;;;;5100364;28;19931;-68
2023/02/08 11:25:35;;;;;;;;;;;3.50;99.90;;;;;;5077440;28;20021;-68
2023/02/08 11:28:01;;;;;;;;;;;3.50;99.90;;;;;;5092332;28;20310;-67
2023/02/08 11:30:27;;;;;;;;;;;3.50;99.90;;;;;;5085850;28;19974;-67
2023/02/08 11:33:11;;;;;;;;;;;3.60;99.90;;;;;;5095276;28;19920;-67
2023/02/08 11:35:37;;;;;;;;;;;3.60;99.90;;;;;;5087710;28;20420;-66
2023/02/08 11:38:02;;;;;;;;;;;3.60;99.90;;;;;;5078280;28;19962;-67
2023/02/08 11:40:35;;;;;;;;;;;3.80;99.90;;;;;;5080833;28;20005;-67
2023/02/08 11:43:01;;;;;;;;;;;3.80;99.90;;;;;;5096121;28;19963;-66
2023/02/08 11:45:31;;;;;;;;;;;3.90;99.90;;;;;;5075139;28;19920;-67
2023/02/08 11:47:58;;;;;;;;;;;3.90;99.90;;;;;;5094728;28;20001;-67
2023/02/08 11:50:29;;;;;;;;;;;4.00;99.90;;;;;;5097605;28;19998;-67
2023/02/08 11:53:05;;;;;;;;;;;4.10;99.90;;;;;;5087392;28;19912;-67
2023/02/08 11:55:32;;;;;;;;;;;4.20;99.90;;;;;;5092873;28;20046;-67
2023/02/08 11:58:00;;;;;;;;;;;4.20;99.90;;;;;;5094423;28;19951;-67
2023/02/08 12:00:29;;;;;;;;;;;4.20;99.90;;;;;;5096337;28;20307;-67
2023/02/08 12:02:59;;;;;;;;;;;4.10;99.90;;;;;;5090152;28;19916;-67
2023/02/08 12:05:51;;;;;;;;;;;4.20;99.90;;;;;;5092812;28;19912;-68
2023/02/08 12:08:17;;;;;;;;;;;4.20;99.90;;;;;;5072905;28;19912;-67
2023/02/08 12:11:05;;;;;;;;;;;4.30;99.90;;;;;;5095797;28;19966;-67
2023/02/08 12:13:31;;;;;;;;;;;4.30;99.90;;;;;;5090861;28;19912;-67
2023/02/08 12:15:59;;;;;;;;;;;4.30;99.90;;;;;;5096071;28;19965;-68
2023/02/08 12:18:43;;;;;;;;;;;4.30;99.90;;;;;;5078180;28;19942;-67
2023/02/08 12:21:30;;;;;;;;;;;4.30;99.90;;;;;;5074902;28;19913;-68
2023/02/08 12:24:03;;;;;;;;;;;4.30;99.90;;;;;;5089172;28;21367;-67
2023/02/08 12:26:37;;;;;;;;;;;4.30;99.90;;;;;;5095824;28;19912;-67
2023/02/08 12:29:13;;;;;;;;;;;4.40;99.90;;;;;;5078703;28;19908;-67
2023/02/08 12:31:52;;;;;;;;;;;4.40;99.90;;;;;;5091638;28;19919;-68
2023/02/08 12:34:23;;;;;;;;;;;4.40;99.90;;;;;;5083797;28;19954;-67
2023/02/08 12:40:48;;;;;;;;;;;4.50;99.90;;;;;;5089095;28;19912;-67
2023/02/08 12:42:40;;;;;;;;;;;4.50;99.90;;;;;;5077628;28;19928;-67
2023/02/08 12:45:05;;;;;;;;;;;4.60;99.90;;;;;;5085728;28;19935;-66
2023/02/08 12:47:31;;;;;;;;;;;4.70;99.90;;;;;;5092219;28;19920;-66
2023/02/08 12:49:57;;;;;;;;;;;4.70;99.90;;;;;;5097047;28;19936;-67
2023/02/08 12:52:35;;;;;;;;;;;4.70;99.90;;;;;;5096234;28;19919;-67
2023/02/08 12:55:04;;;;;;;;;;;4.70;99.90;;;;;;5093270;28;19912;-67
2023/02/08 12:57:30;;;;;;;;;;;4.60;99.90;;;;;;5094693;28;20385;-67
2023/02/08 13:00:17;;;;;;;;;;;4.50;99.90;;;;;;5096738;28;19908;-67
2023/02/08 13:02:56;;;;;;;;;;;4.60;99.90;;;;;;5094594;28;19923;-67
2023/02/08 13:05:23;;;;;;;;;;;4.50;99.90;;;;;;5096257;28;20534;-66
2023/02/08 13:07:53;;;;;;;;;;;4.50;99.90;;;;;;5090219;28;19921;-65
2023/02/08 13:10:25;;;;;;;;;;;4.50;99.90;;;;;;5087704;28;19996;-68
2023/02/08 13:12:57;;;;;;;;;;;4.50;99.90;;;;;;5091504;28;19998;-65
2023/02/08 13:15:26;;;;;;;;;;;4.50;99.90;;;;;;5087537;28;20311;-68
2023/02/08 13:18:04;;;;;;;;;;;4.40;99.90;;;;;;5082127;28;19937;-68
2023/02/08 13:20:31;;;;;;;;;;;4.40;99.90;;;;;;5088208;28;19927;-69
2023/02/08 13:22:59;;;;;;;;;;;4.40;99.90;;;;;;5101484;28;19977;-68
2023/02/08 13:25:28;;;;;;;;;;;4.30;99.90;;;;;;5086951;28;19966;-68
2023/02/08 13:27:54;;;;;;;;;;;4.30;99.90;;;;;;5099878;28;20276;-69
2023/02/08 13:30:20;;;;;;;;;;;4.30;99.90;;;;;;5109545;28;19912;-67
2023/02/08 13:32:49;;;;;;;;;;;4.20;99.90;;;;;;5106874;28;20373;-67
2023/02/08 13:35:16;;;;;;;;;;;4.20;99.90;;;;;;5097482;28;19909;-67
2023/02/08 13:37:49;;;;;;;;;;;4.30;99.90;;;;;;5109520;28;19937;-68
2023/02/08 13:40:20;;;;;;;;;;;4.30;99.90;;;;;;5102910;28;19915;-67
2023/02/08 13:42:47;;;;;;;;;;;4.30;99.90;;;;;;5108060;28;19916;-67
2023/02/08 13:45:33;;;;;;;;;;;4.30;99.90;;;;;;5111571;28;19908;-67
2023/02/08 13:48:03;;;;;;;;;;;4.30;99.90;;;;;;5104012;28;20285;-67
2023/02/08 13:50:38;;;;;;;;;;;4.30;99.90;;;;;;5085348;28;20393;-67
2023/02/08 13:53:04;;;;;;;;;;;4.40;99.90;;;;;;5109941;28;19911;-67
2023/02/08 13:55:34;;;;;;;;;;;4.40;99.90;;;;;;5111665;28;19920;-66
2023/02/08 13:58:00;;;;;;;;;;;4.40;99.90;;;;;;5114464;28;19914;-67
2023/02/08 14:00:33;;;;;;;;;;;4.40;99.90;;;;;;5088590;28;20358;-68
2023/02/08 14:03:00;;;;;;;;;;;4.30;99.90;;;;;;5105423;28;19923;-67
2023/02/08 14:05:49;;;;;;;;;;;4.40;99.90;;;;;;5087988;28;19911;-67
2023/02/08 14:08:22;;;;;;;;;;;4.40;99.90;;;;;;5085382;28;19923;-67
2023/02/08 14:11:00;;;;;;;;;;;4.50;99.90;;;;;;5098659;28;19930;-67
2023/02/08 14:13:43;;;;;;;;;;;4.40;99.90;;;;;;5105028;28;20379;-67
2023/02/08 14:16:29;;;;;;;;;;;4.30;99.90;;;;;;5091018;28;19986;-67
2023/02/08 14:19:05;;;;;;;;;;;4.20;99.90;;;;;;5085136;28;19919;-68
2023/02/08 14:21:33;;;;;;;;;;;4.20;99.90;;;;;;5088893;28;20289;-68
2023/02/08 14:24:00;;;;;;;;;;;4.30;99.90;;;;;;5088150;28;20774;-67
2023/02/08 14:26:26;;;;;;;;;;;4.30;99.90;;;;;;5083962;28;19920;-65
2023/02/08 14:28:54;;;;;;;;;;;4.30;99.90;;;;;;5070205;28;19912;-66
2023/02/08 14:31:21;;;;;;;;;;;4.30;99.90;;;;;;5089281;28;19912;-66
2023/02/08 14:33:54;;;;;;;;;;;4.30;99.90;;;;;;5090962;28;19913;-68
2023/02/08 14:36:20;;;;;;;;;;;4.20;99.90;;;;;;5101124;28;19908;-67
2023/02/08 14:38:45;;;;;;;;;;;4.10;99.90;;;;;;5074363;28;19927;-67
2023/02/08 14:41:31;;;;;;;;;;;4.10;99.90;;;;;;5083772;28;19913;-68
2023/02/08 14:43:56;;;;;;;;;;;4.40;99.90;;;;;;5093737;28;19923;-68
2023/02/08 14:46:38;;;;;;;;;;;4.80;99.90;;;;;;5093147;28;19912;-68